Time;durP1;ratioP1;P1;durP2;ratioP2;P2;SDS_P1;SDS_P2;PMS_P1;PMS_P2;Temp;Humidity;BMP_temperature;BMP_pressure;BME280_temperature;BME280_humidity;BME280_pressure;Samples;Min_cycle;Max_cycle;Signal;HPM_P1;HPM_P2
2021/01/22 00:01:35;;;;;;;2.55;1.30;;;;;;;10.86;64.77;98267.38;4995633;28;20046;-71
2021/01/22 00:04:00;;;;;;;2.20;1.20;;;;;;;10.90;64.59;98271.25;4992476;28;20100;-71
2021/01/22 00:06:26;;;;;;;3.45;1.08;;;;;;;10.82;64.98;98259.88;4998117;28;20034;-71
2021/01/22 00:08:51;;;;;;;3.70;1.27;;;;;;;10.74;65.18;98254.00;4995778;28;20026;-71
2021/01/22 00:11:16;;;;;;;1.70;0.90;;;;;;;10.86;64.49;98239.09;5000400;28;20647;-71
2021/01/22 00:13:42;;;;;;;1.67;1.08;;;;;;;10.79;64.80;98239.13;4996311;28;20026;-70
2021/01/22 00:16:07;;;;;;;2.25;0.95;;;;;;;10.82;64.50;98246.66;5004215;28;20030;-71
2021/01/22 00:18:32;;;;;;;2.00;1.10;;;;;;;11.05;63.35;98248.78;5005138;28;20419;-71
2021/01/22 00:20:58;;;;;;;2.10;1.10;;;;;;;10.90;64.40;98250.91;4997950;28;20026;-71
2021/01/22 00:23:24;;;;;;;2.50;1.02;;;;;;;10.89;64.27;98243.16;4997223;28;20044;-71
2021/01/22 00:25:49;;;;;;;2.25;0.90;;;;;;;10.83;64.36;98237.69;5002864;28;20033;-71
2021/01/22 00:28:15;;;;;;;2.80;1.38;;;;;;;10.75;64.70;98240.59;4996361;28;20538;-71
2021/01/22 00:30:40;;;;;;;2.00;1.00;;;;;;;10.75;64.88;98237.94;4995799;28;20483;-71
2021/01/22 00:33:05;;;;;;;1.67;0.93;;;;;;;10.77;64.38;98233.25;4994131;28;20041;-71
2021/01/22 00:35:30;;;;;;;2.92;0.95;;;;;;;10.83;64.10;98234.25;4997161;28;20029;-71
2021/01/22 00:37:56;;;;;;;1.70;1.10;;;;;;;10.80;63.89;98224.91;5003542;28;20088;-71
2021/01/22 00:40:21;;;;;;;1.70;1.00;;;;;;;10.74;64.39;98231.00;4999328;28;20032;-71
2021/01/22 00:42:46;;;;;;;1.52;1.00;;;;;;;10.71;64.32;98234.09;4991357;28;20093;-70
2021/01/22 00:45:12;;;;;;;2.42;1.10;;;;;;;10.97;63.50;98237.66;5002971;28;20076;-72
2021/01/22 00:47:37;;;;;;;1.52;1.00;;;;;;;10.87;63.73;98224.03;4998044;28;20030;-71
2021/01/22 00:50:03;;;;;;;2.42;1.20;;;;;;;11.00;63.25;98224.00;5011293;28;20026;-71
2021/01/22 00:52:29;;;;;;;2.00;1.20;;;;;;;10.87;63.73;98226.69;4997192;28;20077;-71
2021/01/22 00:54:54;;;;;;;2.20;1.02;;;;;;;11.00;62.72;98213.41;4996762;28;20058;-72
2021/01/22 00:57:20;;;;;;;2.53;1.00;;;;;;;10.99;62.42;98212.63;4993588;28;20037;-71
2021/01/22 00:59:45;;;;;;;1.50;0.90;;;;;;;11.11;62.05;98209.28;5003014;28;20026;-71
2021/01/22 01:02:10;;;;;;;1.40;0.90;;;;;;;11.18;61.62;98208.25;4995785;28;20034;-72
2021/01/22 01:04:35;;;;;;;1.48;0.75;;;;;;;11.12;62.04;98198.50;5007078;28;20037;-71
2021/01/22 01:07:01;;;;;;;2.15;0.80;;;;;;;11.05;61.86;98195.09;5006026;28;20399;-72
2021/01/22 01:09:26;;;;;;;1.20;0.80;;;;;;;10.94;62.59;98191.28;5001975;28;20120;-71
2021/01/22 01:11:51;;;;;;;1.27;0.65;;;;;;;10.79;62.99;98196.03;5000172;28;20022;-71
2021/01/22 01:14:17;;;;;;;1.60;0.70;;;;;;;10.83;62.90;98187.47;4995083;28;20037;-71
2021/01/22 01:16:43;;;;;;;1.48;0.60;;;;;;;10.95;61.88;98189.44;5007098;28;20015;-72
2021/01/22 01:19:08;;;;;;;0.82;0.70;;;;;;;10.88;62.02;98184.19;5006430;28;20029;-71
2021/01/22 01:21:34;;;;;;;0.73;0.60;;;;;;;10.94;61.81;98187.81;5002025;28;20393;-70
2021/01/22 01:23:59;;;;;;;0.82;0.60;;;;;;;10.92;61.80;98184.59;5000609;28;20034;-71
2021/01/22 01:26:25;;;;;;;0.93;0.50;;;;;;;10.86;61.57;98194.16;4999079;28;20034;-70
2021/01/22 01:28:50;;;;;;;0.85;0.52;;;;;;;10.96;61.12;98180.47;4996375;28;20034;-71
2021/01/22 01:31:16;;;;;;;0.98;0.52;;;;;;;10.74;62.00;98198.50;5000072;28;20372;-71
2021/01/22 01:33:41;;;;;;;1.90;0.50;;;;;;;10.66;62.10;98188.16;4999897;28;20648;-71
2021/01/22 01:36:07;;;;;;;0.98;0.50;;;;;;;10.68;62.21;98202.78;5000596;28;20022;-71
2021/01/22 01:38:32;;;;;;;1.05;0.50;;;;;;;10.63;62.75;98208.72;5004381;28;20099;-72
2021/01/22 01:40:58;;;;;;;2.03;0.70;;;;;;;10.66;63.11;98204.03;5007129;28;20040;-70
2021/01/22 01:43:23;;;;;;;1.45;0.55;;;;;;;10.64;63.71;98209.50;4996945;28;20101;-70
2021/01/22 01:45:49;;;;;;;0.75;0.50;;;;;;;10.40;64.76;98206.53;4997593;28;20049;-71
2021/01/22 01:48:16;;;;;;;0.77;0.52;;;;;;;10.26;65.82;98204.91;5003355;28;20029;-70
2021/01/22 01:50:42;;;;;;;0.93;0.60;;;;;;;10.29;66.04;98207.16;5000568;28;20367;-71
2021/01/22 01:53:08;;;;;;;1.65;0.70;;;;;;;10.28;66.49;98216.13;5006866;28;20037;-71
2021/01/22 01:55:34;;;;;;;1.05;0.60;;;;;;;10.22;67.01;98211.63;5001254;28;20029;-72
2021/01/22 01:58:01;;;;;;;0.85;0.60;;;;;;;10.14;67.45;98214.50;4995627;28;20025;-70
2021/01/22 02:00:27;;;;;;;0.50;0.50;;;;;;;10.01;68.13;98202.13;4999717;28;20129;-70
2021/01/22 02:02:52;;;;;;;0.70;0.63;;;;;;;10.03;68.71;98201.91;4997742;28;20580;-71
2021/01/22 02:05:18;;;;;;;1.17;0.85;;;;;;;10.04;69.06;98203.53;4997257;28;20432;-70
2021/01/22 02:07:43;;;;;;;2.63;0.88;;;;;;;10.03;69.25;98202.72;5002365;28;20025;-70
2021/01/22 02:10:10;;;;;;;1.23;0.77;;;;;;;10.03;69.46;98196.63;5002007;28;20407;-70
2021/01/22 02:12:37;;;;;;;1.13;0.70;;;;;;;9.85;70.91;98210.47;4997726;28;20022;-70
2021/01/22 02:15:03;;;;;;;1.85;0.80;;;;;;;9.94;70.31;98199.50;4997616;28;20073;-71
2021/01/22 02:17:30;;;;;;;1.55;0.80;;;;;;;9.91;70.61;98201.72;5000153;28;20065;-70
2021/01/22 02:20:19;;;;;;;3.25;1.27;;;;;;;10.05;70.19;98199.88;5002214;28;20065;-70
2021/01/22 02:22:44;;;;;;;1.75;0.90;;;;;;;9.95;70.47;98195.81;4998389;28;20048;-70
2021/01/22 02:25:13;;;;;;;1.80;0.88;;;;;;;9.94;70.40;98198.69;5005898;28;20018;-70
2021/01/22 02:27:39;;;;;;;2.85;1.00;;;;;;;10.10;69.38;98197.44;4998986;28;20061;-72
2021/01/22 02:30:06;;;;;;;1.55;0.82;;;;;;;10.19;68.99;98196.19;4999556;28;20062;-71
2021/01/22 02:32:33;;;;;;;1.27;0.70;;;;;;;10.23;68.77;98200.06;4995594;28;20038;-71
2021/01/22 02:35:03;;;;;;;5.22;1.67;;;;;;;10.24;68.48;98185.81;5002595;28;20060;-71
2021/01/22 02:37:29;;;;;;;3.15;1.20;;;;;;;10.28;68.20;98192.34;4999603;28;20057;-71
2021/01/22 02:39:56;;;;;;;2.33;1.05;;;;;;;10.41;67.45;98194.13;5003457;28;20034;-71
2021/01/22 02:42:23;;;;;;;1.65;0.80;;;;;;;10.45;67.12;98195.34;5002617;28;21185;-72
2021/01/22 02:44:49;;;;;;;1.80;0.90;;;;;;;10.52;66.93;98190.03;5000476;28;20041;-73
2021/01/22 02:47:17;;;;;;;1.40;0.90;;;;;;;10.48;66.91;98200.19;5001969;28;20068;-70
2021/01/22 02:49:42;;;;;;;3.78;1.05;;;;;;;10.68;65.52;98191.38;5006220;28;20717;-71
2021/01/22 02:52:09;;;;;;;4.35;1.02;;;;;;;10.69;65.50;98196.47;5008576;28;20061;-70
2021/01/22 02:54:34;;;;;;;3.45;1.17;;;;;;;10.77;64.73;98185.69;4999956;28;20026;-72
2021/01/22 02:57:24;;;;;;;2.58;1.00;;;;;;;10.91;63.98;98162.59;5002361;28;20029;-71
2021/01/22 03:00:04;;;;;;;2.90;1.20;;;;;;;10.96;63.58;98177.84;5002212;28;20025;-71
2021/01/22 03:03:03;;;;;;;2.92;1.15;;;;;;;10.95;63.13;98181.53;4998417;28;20400;-71
2021/01/22 03:05:31;;;;;;;3.03;1.05;;;;;;;10.81;63.60;98184.22;4995567;28;20022;-71
2021/01/22 03:08:03;;;;;;;3.65;1.20;;;;;;;10.98;63.03;98178.44;4997532;28;20024;-71
2021/01/22 03:10:30;;;;;;;2.50;1.00;;;;;;;10.94;63.09;98174.59;4997046;28;20031;-71
2021/01/22 03:12:57;;;;;;;2.13;0.98;;;;;;;10.93;62.81;98181.72;5000564;28;20101;-71
2021/01/22 03:15:22;;;;;;;4.13;1.10;;;;;;;11.01;61.45;98176.19;4999733;28;20036;-71
2021/01/22 03:17:48;;;;;;;5.20;1.30;;;;;;;11.07;61.94;98177.16;5003023;28;20026;-73
2021/01/22 03:20:20;;;;;;;3.08;1.05;;;;;;;11.10;61.67;98181.22;5002816;28;20076;-71
2021/01/22 03:22:45;;;;;;;1.70;0.80;;;;;;;11.03;61.33;98179.41;4996757;28;20546;-71
2021/01/22 03:25:12;;;;;;;3.15;1.05;;;;;;;11.13;60.88;98172.84;5000461;28;20065;-71
2021/01/22 03:27:38;;;;;;;2.92;1.00;;;;;;;11.18;60.82;98180.97;4995582;28;20025;-72
2021/01/22 03:30:04;;;;;;;3.63;0.90;;;;;;;11.16;60.51;98175.09;5001254;28;20065;-72
2021/01/22 03:32:30;;;;;;;4.25;1.20;;;;;;;11.20;60.41;98166.53;4995044;28;20125;-71
2021/01/22 03:34:55;;;;;;;2.65;1.00;;;;;;;11.15;60.17;98168.97;4995938;28;20467;-71
2021/01/22 03:37:20;;;;;;;3.83;1.20;;;;;;;11.12;60.73;98172.03;5000163;28;20379;-71
2021/01/22 03:39:45;;;;;;;3.55;1.00;;;;;;;11.14;60.58;98172.66;4990838;28;20018;-73
2021/01/22 03:42:11;;;;;;;3.20;1.13;;;;;;;11.15;60.54;98158.38;4999323;28;20080;-71
2021/01/22 03:44:36;;;;;;;5.30;1.30;;;;;;;11.05;61.38;98163.34;4989119;28;20105;-71
2021/01/22 03:47:02;;;;;;;4.15;1.15;;;;;;;10.99;61.63;98158.94;4999188;28;20028;-71
2021/01/22 03:49:28;;;;;;;3.38;1.00;;;;;;;11.10;60.74;98166.16;4999596;28;20039;-72
2021/01/22 03:51:53;;;;;;;4.75;1.45;;;;;;;11.10;60.70;98168.81;5001015;28;20615;-71
2021/01/22 03:54:18;;;;;;;4.95;1.30;;;;;;;10.99;61.30;98159.72;5004105;28;20113;-72
2021/01/22 03:56:44;;;;;;;4.22;1.08;;;;;;;11.04;60.54;98164.38;4994021;28;20091;-71
2021/01/22 03:59:09;;;;;;;3.10;1.00;;;;;;;11.12;60.19;98164.13;4998792;28;20026;-71
2021/01/22 04:01:34;;;;;;;4.07;1.30;;;;;;;11.12;60.46;98155.38;4990181;28;20073;-71
2021/01/22 04:03:59;;;;;;;3.63;1.05;;;;;;;11.03;60.51;98160.09;4995790;28;20030;-71
2021/01/22 04:06:25;;;;;;;5.63;1.30;;;;;;;11.11;60.56;98159.88;5001063;28;20025;-71
2021/01/22 04:08:51;;;;;;;5.50;1.08;;;;;;;10.99;61.01;98156.28;4998209;28;20077;-71
2021/01/22 04:11:16;;;;;;;4.95;1.60;;;;;;;11.02;60.85;98151.38;4994025;28;20144;-72
2021/01/22 04:13:42;;;;;;;3.45;1.30;;;;;;;10.96;61.25;98161.97;5006861;28;20025;-71
2021/01/22 04:16:07;;;;;;;6.43;1.83;;;;;;;11.12;60.54;98160.66;4997891;28;20053;-72
2021/01/22 04:18:33;;;;;;;4.65;1.42;;;;;;;11.11;60.33;98149.28;4999843;28;20026;-71
2021/01/22 04:20:58;;;;;;;3.25;1.25;;;;;;;11.06;60.96;98159.69;4998087;28;20026;-72
2021/01/22 04:23:23;;;;;;;3.65;1.20;;;;;;;11.04;60.87;98151.16;5008842;28;20026;-71
2021/01/22 04:25:49;;;;;;;3.70;1.20;;;;;;;11.00;60.81;98160.53;4998893;28;20017;-71
2021/01/22 04:28:14;;;;;;;4.30;1.30;;;;;;;11.07;60.62;98155.22;5009130;28;20487;-71
2021/01/22 04:30:40;;;;;;;5.00;1.20;;;;;;;11.00;61.15;98166.63;5006332;28;20403;-71
2021/01/22 04:33:05;;;;;;;3.67;1.20;;;;;;;10.91;61.59;98154.66;5002895;28;20035;-71
2021/01/22 04:35:31;;;;;;;4.40;1.15;;;;;;;11.03;60.98;98146.88;5002040;28;20492;-71
2021/01/22 04:37:56;;;;;;;2.42;1.10;;;;;;;10.83;62.07;98150.44;5003217;28;20040;-71
2021/01/22 04:40:24;;;;;;;2.05;1.05;;;;;;;10.83;62.06;98149.66;5005325;28;20041;-71
2021/01/22 04:42:50;;;;;;;5.13;1.17;;;;;;;10.77;62.21;98151.31;5001120;28;20026;-71
2021/01/22 04:45:15;;;;;;;5.55;1.13;;;;;;;10.78;62.38;98138.91;4993978;28;20045;-71
2021/01/22 04:47:42;;;;;;;3.97;1.08;;;;;;;10.77;62.14;98145.19;5007622;28;20487;-71
2021/01/22 04:50:11;;;;;;;3.10;1.10;;;;;;;10.77;62.31;98146.03;4997668;28;20030;-71
2021/01/22 04:52:38;;;;;;;4.28;1.30;;;;;;;10.71;62.34;98143.41;5002204;28;20112;-71
2021/01/22 04:55:06;;;;;;;4.00;1.27;;;;;;;10.68;62.62;98136.72;5011462;28;20030;-71
2021/01/22 04:57:35;;;;;;;2.20;0.90;;;;;;;10.61;62.80;98141.22;5000670;28;20154;-71
2021/01/22 05:00:03;;;;;;;7.65;1.25;;;;;;;10.59;63.02;98135.34;5006423;28;20034;-72
2021/01/22 05:02:28;;;;;;;2.97;0.98;;;;;;;10.54;63.00;98130.69;4998339;28;20038;-70
2021/01/22 05:04:56;;;;;;;3.35;1.20;;;;;;;10.74;61.92;98120.00;4999367;28;20040;-72
2021/01/22 05:07:21;;;;;;;5.93;1.10;;;;;;;10.68;62.14;98123.50;5002974;28;20024;-70
2021/01/22 05:09:47;;;;;;;2.40;0.90;;;;;;;10.63;62.40;98120.69;4999204;28;20109;-71
2021/01/22 05:12:13;;;;;;;3.70;1.10;;;;;;;10.66;62.14;98120.25;5002695;28;20034;-70
2021/01/22 05:14:38;;;;;;;3.50;1.42;;;;;;;10.69;61.93;98119.81;5001129;28;20558;-70
2021/01/22 05:17:08;;;;;;;3.55;1.10;;;;;;;10.69;61.88;98116.38;5005998;28;20149;-70
2021/01/22 05:19:34;;;;;;;3.17;1.00;;;;;;;10.67;61.77;98110.50;5004704;28;20030;-69
2021/01/22 05:22:00;;;;;;;2.65;1.08;;;;;;;10.65;62.21;98112.53;4995474;28;20050;-70
2021/01/22 05:24:27;;;;;;;4.40;1.00;;;;;;;10.73;61.65;98109.66;5000629;28;20030;-70
2021/01/22 05:27:07;;;;;;;2.58;0.90;;;;;;;10.67;61.89;98108.66;4998670;28;20019;-71
2021/01/22 05:29:34;;;;;;;5.55;1.48;;;;;;;10.84;61.27;98106.31;5001212;28;20026;-70
2021/01/22 05:32:00;;;;;;;3.20;0.95;;;;;;;10.73;61.45;98109.66;4996246;28;20141;-70
2021/01/22 05:34:45;;;;;;;4.90;1.15;;;;;;;10.86;61.02;98098.97;4994582;28;20118;-70
2021/01/22 05:37:10;;;;;;;3.17;1.05;;;;;;;10.75;61.43;98097.00;4988599;28;20022;-69
2021/01/22 05:39:36;;;;;;;2.15;0.90;;;;;;;10.73;61.58;98097.25;5002998;28;20034;-70
2021/01/22 05:42:01;;;;;;;5.82;1.13;;;;;;;10.76;61.37;98099.44;4999748;28;20495;-70
2021/01/22 05:44:26;;;;;;;3.30;1.05;;;;;;;10.78;61.07;98100.06;4998570;28;20030;-71
2021/01/22 05:47:09;;;;;;;3.65;1.00;;;;;;;10.93;60.71;98105.03;4994790;28;20027;-71
2021/01/22 05:50:00;;;;;;;2.50;1.10;;;;;;;10.90;60.98;98104.66;4997456;28;20121;-71
2021/01/22 05:52:26;;;;;;;3.22;1.13;;;;;;;10.87;61.10;98099.78;4997560;28;20034;-70
2021/01/22 05:54:52;;;;;;;2.88;1.30;;;;;;;10.93;60.79;98101.59;4992582;28;20074;-71
2021/01/22 05:57:18;;;;;;;3.45;1.00;;;;;;;10.77;61.77;98102.91;4997698;28;20022;-70
2021/01/22 05:59:43;;;;;;;3.60;1.20;;;;;;;10.84;61.22;98101.88;5007992;28;20029;-70
2021/01/22 06:02:25;;;;;;;3.83;1.58;;;;;;;10.78;62.25;98107.19;4995720;28;20042;-71
2021/01/22 06:05:13;;;;;;;3.97;0.98;;;;;;;10.84;61.63;98109.78;4998682;28;20031;-72
2021/01/22 06:07:44;;;;;;;4.60;1.13;;;;;;;10.83;62.16;98105.50;5000759;28;20030;-69
2021/01/22 06:10:15;;;;;;;3.45;1.00;;;;;;;10.72;63.06;98108.81;5001690;28;20034;-70
2021/01/22 06:12:52;;;;;;;2.63;0.93;;;;;;;10.69;63.05;98111.09;4999403;28;20026;-70
2021/01/22 06:15:20;;;;;;;2.95;1.05;;;;;;;10.79;62.26;98112.22;5002794;28;20032;-70
2021/01/22 06:17:48;;;;;;;3.08;1.05;;;;;;;10.81;62.48;98118.13;4991216;28;20073;-70
2021/01/22 06:20:16;;;;;;;3.75;1.23;;;;;;;10.89;62.11;98106.47;4995200;28;20084;-70
2021/01/22 06:22:46;;;;;;;2.15;1.10;;;;;;;10.88;62.55;98112.00;5002567;28;20026;-70
2021/01/22 06:25:12;;;;;;;4.75;1.30;;;;;;;10.78;62.73;98107.97;4993739;28;20034;-70
2021/01/22 06:27:39;;;;;;;2.40;0.90;;;;;;;10.73;62.76;98109.66;4997078;28;20030;-70
2021/01/22 06:30:08;;;;;;;2.97;1.20;;;;;;;10.77;62.71;98109.03;4998765;28;20033;-69
2021/01/22 06:32:37;;;;;;;2.53;1.05;;;;;;;10.81;62.64;98114.69;5005382;28;20050;-70
2021/01/22 06:35:02;;;;;;;3.58;1.30;;;;;;;10.80;62.40;98123.66;4997293;28;20487;-71
2021/01/22 06:37:28;;;;;;;2.50;0.85;;;;;;;10.73;62.68;98128.97;4999527;28;20030;-70
2021/01/22 06:39:55;;;;;;;2.63;1.00;;;;;;;10.80;62.28;98132.38;4998272;28;20116;-70
2021/01/22 06:42:21;;;;;;;3.60;1.00;;;;;;;10.74;62.90;98127.94;4994986;28;20022;-71
2021/01/22 06:44:46;;;;;;;2.08;0.80;;;;;;;10.87;61.95;98121.78;4994740;28;20084;-71
2021/01/22 06:47:12;;;;;;;2.45;0.98;;;;;;;10.78;62.50;98125.69;4990938;28;20488;-70
2021/01/22 06:49:39;;;;;;;2.65;0.90;;;;;;;10.80;62.78;98135.03;4998850;28;20031;-71
2021/01/22 06:52:12;;;;;;;3.80;0.80;;;;;;;10.78;63.27;98129.13;4995964;28;20031;-70
2021/01/22 06:54:56;;;;;;;4.13;1.10;;;;;;;10.71;64.07;98138.94;4996290;28;20426;-71
2021/01/22 06:57:21;;;;;;;1.98;0.70;;;;;;;10.74;63.64;98135.06;4998779;28;20026;-71
2021/01/22 06:59:46;;;;;;;3.55;0.70;;;;;;;10.63;64.55;98131.25;4999180;28;20357;-70
2021/01/22 07:02:36;;;;;;;2.80;0.98;;;;;;;10.75;64.27;98124.28;5006812;28;20503;-71
2021/01/22 07:05:02;;;;;;;2.08;0.90;;;;;;;10.61;64.78;98130.66;4992756;28;20062;-71
2021/01/22 07:07:47;;;;;;;3.45;0.85;;;;;;;10.55;65.23;98123.56;4997630;28;20586;-70
2021/01/22 07:10:12;;;;;;;3.35;1.10;;;;;;;10.57;65.32;98132.09;4991486;28;20125;-71
2021/01/22 07:12:40;;;;;;;2.13;0.90;;;;;;;10.63;64.93;98129.41;4991619;28;20105;-71
2021/01/22 07:15:21;;;;;;;2.40;0.80;;;;;;;10.55;65.71;98128.84;4998129;28;20030;-71
2021/01/22 07:17:59;;;;;;;2.22;0.77;;;;;;;10.64;65.66;98151.38;4998967;28;20017;-71
2021/01/22 07:20:25;;;;;;;5.65;1.17;;;;;;;10.60;65.44;98143.03;4992866;28;20556;-70
2021/01/22 07:22:51;;;;;;;3.97;1.00;;;;;;;10.45;66.56;98152.25;5005484;28;20522;-70
2021/01/22 07:25:30;;;;;;;4.13;1.05;;;;;;;10.30;67.55;98141.97;4999885;28;20026;-70
2021/01/22 07:27:55;;;;;;;3.08;1.20;;;;;;;10.33;67.19;98147.63;4990205;28;20014;-70
2021/01/22 07:30:21;;;;;;;1.92;0.90;;;;;;;10.20;68.14;98160.81;4990295;28;20118;-71
2021/01/22 07:32:51;;;;;;;4.22;1.20;;;;;;;10.18;68.26;98153.13;4993620;28;20019;-70
2021/01/22 07:35:24;;;;;;;3.58;1.10;;;;;;;10.17;68.79;98156.78;4991337;28;20475;-71
2021/01/22 07:37:50;;;;;;;2.17;1.00;;;;;;;10.08;69.59;98162.50;4987092;28;20037;-70
2021/01/22 07:40:16;;;;;;;2.70;0.80;;;;;;;10.05;69.82;98158.44;4979370;28;20443;-70
2021/01/22 07:42:43;;;;;;;4.40;1.10;;;;;;;10.17;69.34;98156.78;4979619;28;20097;-70
2021/01/22 07:45:19;;;;;;;2.05;1.00;;;;;;;10.23;69.03;98157.00;4980604;28;20064;-71
2021/01/22 07:47:46;;;;;;;4.05;0.90;;;;;;;10.12;69.75;98155.78;4973211;28;20391;-71
2021/01/22 07:50:14;;;;;;;3.75;1.20;;;;;;;9.91;70.95;98167.41;4980657;28;20030;-70
2021/01/22 07:52:41;;;;;;;7.50;1.30;;;;;;;10.11;70.05;98160.25;4980894;28;20037;-70
2021/01/22 07:55:14;;;;;;;3.13;1.20;;;;;;;10.09;70.30;98151.72;4984949;28;20038;-70
2021/01/22 07:57:40;;;;;;;2.28;1.00;;;;;;;10.21;69.63;98157.19;5002743;28;20018;-71
2021/01/22 08:00:08;;;;;;;3.10;1.10;;;;;;;10.01;70.55;98151.97;5003481;28;20026;-71
2021/01/22 08:02:33;;;;;;;5.05;1.60;;;;;;;10.13;69.97;98147.66;5010617;28;20062;-71
2021/01/22 08:05:04;;;;;;;4.80;1.35;;;;;;;9.94;70.96;98144.06;5026138;28;20111;-70
2021/01/22 08:07:37;;;;;;;3.72;1.20;;;;;;;9.84;71.79;98141.00;5018394;28;20308;-70
2021/01/22 08:10:05;;;;;;;4.00;1.25;;;;;;;9.77;72.19;98130.47;5014660;28;20034;-70
2021/01/22 08:12:31;;;;;;;4.07;1.45;;;;;;;9.71;72.59;98128.66;5008421;28;20034;-70
2021/01/22 08:14:57;;;;;;;4.03;1.27;;;;;;;9.74;72.25;98130.06;5005693;28;20414;-71
2021/01/22 08:17:22;;;;;;;3.22;1.27;;;;;;;9.70;72.51;98132.31;4994796;28;20022;-70
2021/01/22 08:19:48;;;;;;;5.28;1.33;;;;;;;9.77;72.47;98134.94;5000590;28;20113;-70
2021/01/22 08:22:15;;;;;;;3.22;1.00;;;;;;;9.64;73.65;98127.03;4998736;28;20058;-71
2021/01/22 08:24:48;;;;;;;2.67;1.30;;;;;;;9.54;74.11;98123.00;4998071;28;20109;-70
2021/01/22 08:27:13;;;;;;;1.98;0.90;;;;;;;9.46;75.63;98127.66;4994340;28;20439;-71
2021/01/22 08:29:39;;;;;;;5.40;1.20;;;;;;;9.41;75.35;98124.81;4996378;28;20040;-71
2021/01/22 08:32:08;;;;;;;3.67;1.40;;;;;;;9.38;75.53;98127.88;4995879;28;20393;-70
2021/01/22 08:34:34;;;;;;;4.55;1.38;;;;;;;9.29;75.88;98119.34;4998196;28;20030;-71
2021/01/22 08:37:00;;;;;;;2.60;1.00;;;;;;;9.29;75.95;98122.78;4995642;28;20077;-71
2021/01/22 08:39:25;;;;;;;5.85;1.30;;;;;;;9.40;75.83;98128.47;4997179;28;20030;-71
2021/01/22 08:41:51;;;;;;;7.30;1.58;;;;;;;9.39;75.69;98125.03;4995981;28;20077;-71
2021/01/22 08:44:16;;;;;;;6.82;1.65;;;;;;;9.41;75.47;98119.53;5002253;28;20033;-71
2021/01/22 08:46:46;;;;;;;5.30;1.63;;;;;;;9.36;75.76;98130.69;4999331;28;20054;-71
2021/01/22 08:49:13;;;;;;;4.85;1.55;;;;;;;9.42;75.55;98123.81;4996306;28;20034;-71
2021/01/22 08:51:39;;;;;;;2.80;1.17;;;;;;;9.34;75.94;98128.28;4994070;28;20030;-71
2021/01/22 08:54:05;;;;;;;4.47;1.45;;;;;;;9.44;75.28;98132.31;4995615;28;20045;-71
2021/01/22 08:56:30;;;;;;;7.70;1.70;;;;;;;9.59;74.42;98140.84;4993598;28;20031;-71
2021/01/22 08:59:03;;;;;;;3.53;1.40;;;;;;;9.77;73.26;98140.19;4998321;28;20037;-71
2021/01/22 09:01:58;;;;;;;4.32;1.30;;;;;;;9.70;73.58;98139.41;4991219;28;20121;-70
2021/01/22 09:04:30;;;;;;;6.82;1.50;;;;;;;9.60;74.22;98155.66;4992077;28;20015;-70
2021/01/22 09:07:01;;;;;;;6.13;1.52;;;;;;;9.47;76.32;98158.31;4988221;28;20072;-71
2021/01/22 09:09:41;;;;;;;5.18;1.52;;;;;;;9.21;77.12;98181.00;5004441;28;20060;-71
2021/01/22 09:12:17;;;;;;;4.63;1.35;;;;;;;9.09;78.65;98201.88;5004694;28;20044;-71
2021/01/22 09:15:00;;;;;;;7.78;2.00;;;;;;;9.06;78.72;98215.44;4993072;28;20026;-71
2021/01/22 09:17:34;;;;;;;6.60;1.52;;;;;;;8.82;80.16;98223.88;4996558;28;20038;-71
2021/01/22 09:20:02;;;;;;;2.38;1.00;;;;;;;8.49;76.68;98221.91;4992892;28;20384;-70
2021/01/22 09:22:31;;;;;;;1.92;0.60;;;;;;;7.71;77.17;98232.50;5001501;28;20109;-70
2021/01/22 09:24:58;;;;;;;3.70;0.60;;;;;;;7.17;78.82;98254.00;4997403;28;20030;-70
2021/01/22 09:27:24;;;;;;;2.20;0.68;;;;;;;6.68;81.29;98259.91;4993146;28;20023;-70
2021/01/22 09:29:49;;;;;;;3.05;0.70;;;;;;;6.55;81.24;98261.38;4998473;28;20041;-70
2021/01/22 09:32:15;;;;;;;0.98;0.52;;;;;;;6.31;82.65;98265.06;4991182;28;20399;-70
2021/01/22 09:34:40;;;;;;;1.23;0.65;;;;;;;6.15;83.12;98267.88;4997768;28;20026;-70
2021/01/22 09:37:06;;;;;;;0.73;0.45;;;;;;;5.97;83.80;98281.31;4998110;28;20125;-70
2021/01/22 09:39:32;;;;;;;0.80;0.65;;;;;;;5.88;83.51;98267.41;4997045;28;20038;-70
2021/01/22 09:41:57;;;;;;;0.85;0.60;;;;;;;5.86;83.93;98272.00;4994779;28;20042;-70
2021/01/22 09:44:22;;;;;;;0.75;0.52;;;;;;;5.81;84.13;98289.28;4992347;28;20014;-71
2021/01/22 09:46:47;;;;;;;1.58;0.60;;;;;;;5.71;84.38;98282.47;4993864;28;20033;-71
2021/01/22 09:49:13;;;;;;;0.88;0.60;;;;;;;5.60;85.37;98284.69;4995207;28;20033;-71
2021/01/22 09:51:38;;;;;;;0.75;0.60;;;;;;;5.54;85.76;98294.06;4993657;28;20022;-71
2021/01/22 09:54:03;;;;;;;0.65;0.50;;;;;;;5.48;85.87;98308.69;4992060;28;20037;-71
2021/01/22 09:56:29;;;;;;;1.33;0.57;;;;;;;5.40;85.57;98305.31;4991786;28;20030;-71
2021/01/22 09:58:54;;;;;;;1.05;0.70;;;;;;;5.39;85.06;98309.72;4992400;28;20035;-71
2021/01/22 10:01:19;;;;;;;1.13;0.63;;;;;;;5.21;86.75;98322.28;4990888;28;20553;-71
2021/01/22 10:03:45;;;;;;;1.45;0.68;;;;;;;5.21;86.68;98317.03;4992666;28;20105;-71
2021/01/22 10:06:12;;;;;;;1.33;0.70;;;;;;;5.15;85.73;98326.41;4993297;28;20487;-71
2021/01/22 10:08:38;;;;;;;0.57;0.50;;;;;;;5.09;86.27;98316.59;4993926;28;20495;-71
2021/01/22 10:11:04;;;;;;;1.63;0.77;;;;;;;5.13;85.21;98320.50;4994157;28;20030;-71
2021/01/22 10:13:29;;;;;;;0.50;0.50;;;;;;;4.96;86.27;98321.56;4996957;28;20483;-71
2021/01/22 10:15:55;;;;;;;0.55;0.55;;;;;;;4.89;87.46;98343.19;4995109;28;20030;-72
2021/01/22 10:18:20;;;;;;;0.50;0.50;;;;;;;4.83;87.85;98343.06;4992097;28;20065;-71
2021/01/22 10:20:51;;;;;;;1.05;0.70;;;;;;;4.78;87.49;98330.47;4991170;28;20045;-71
2021/01/22 10:23:17;;;;;;;;;;;;;;;4.78;88.44;98333.09;4993526;28;20065;-72
2021/01/22 10:25:42;;;;;;;1.63;0.70;;;;;;;4.74;88.40;98344.88;4992034;28;20123;-72
2021/01/22 10:28:07;;;;;;;1.42;0.60;;;;;;;4.71;87.57;98334.75;4991631;28;20023;-71
2021/01/22 10:30:33;;;;;;;1.90;0.60;;;;;;;4.75;87.46;98340.47;4994362;28;20034;-72
2021/01/22 10:32:58;;;;;;;1.08;0.70;;;;;;;4.78;87.25;98333.09;4992030;28;20080;-72
2021/01/22 10:35:24;;;;;;;1.50;0.70;;;;;;;4.71;87.09;98342.59;5000117;28;20040;-72
2021/01/22 10:37:50;;;;;;;0.95;0.85;;;;;;;4.70;87.18;98338.34;4995986;28;20033;-72
2021/01/22 10:40:15;;;;;;;2.45;0.80;;;;;;;4.73;87.24;98335.41;4991805;28;20018;-72
2021/01/22 10:42:41;;;;;;;1.02;0.70;;;;;;;4.74;87.07;98328.34;4994758;28;20414;-72
2021/01/22 10:45:07;;;;;;;0.90;0.63;;;;;;;4.71;87.39;98332.13;4991119;28;20035;-71
2021/01/22 10:47:32;;;;;;;0.93;0.57;;;;;;;4.75;86.81;98341.28;4995523;28;20077;-71
2021/01/22 10:49:57;;;;;;;0.80;0.60;;;;;;;4.64;86.39;98352.09;4992110;28;20042;-72
2021/01/22 10:52:23;;;;;;;1.40;0.50;;;;;;;4.67;84.61;98359.63;4995953;28;20116;-72
2021/01/22 10:54:48;;;;;;;1.73;0.60;;;;;;;4.60;84.69;98366.50;4997888;28;20069;-72
2021/01/22 10:57:13;;;;;;;1.65;0.90;;;;;;;4.43;85.43;98371.78;4997053;28;20554;-72
2021/01/22 10:59:39;;;;;;;1.40;0.70;;;;;;;4.32;85.77;98369.50;4992296;28;20030;-72
2021/01/22 11:02:08;;;;;;;1.55;0.60;;;;;;;4.32;86.15;98382.59;4986031;28;20495;-72
2021/01/22 11:04:34;;;;;;;1.80;0.60;;;;;;;4.41;85.74;98365.91;4991173;28;20456;-71
2021/01/22 11:07:00;;;;;;;0.80;0.68;;;;;;;4.41;85.00;98367.66;5005706;28;20033;-72
2021/01/22 11:09:25;;;;;;;0.90;0.50;;;;;;;4.24;86.82;98380.78;4991117;28;20133;-72
2021/01/22 11:11:51;;;;;;;0.75;0.50;;;;;;;4.33;85.55;98373.75;4994601;28;20108;-72
2021/01/22 11:14:16;;;;;;;2.47;0.60;;;;;;;4.24;86.77;98379.94;4993091;28;20034;-72
2021/01/22 11:16:41;;;;;;;0.60;0.60;;;;;;;4.28;85.43;98375.22;4997590;28;20079;-71
2021/01/22 11:19:07;;;;;;;2.25;0.60;;;;;;;4.20;86.06;98387.31;4993697;28;20029;-72
2021/01/22 11:21:35;;;;;;;1.17;0.57;;;;;;;4.12;86.75;98386.50;4992490;28;20172;-72
2021/01/22 11:24:00;;;;;;;1.10;0.60;;;;;;;4.02;87.61;98382.25;4991430;28;20522;-72
2021/01/22 11:26:26;;;;;;;1.10;0.60;;;;;;;4.02;87.50;98381.44;4995551;28;20030;-72
2021/01/22 11:28:52;;;;;;;1.70;0.60;;;;;;;4.08;86.76;98375.56;4989379;28;20018;-72
2021/01/22 11:31:17;;;;;;;0.70;0.60;;;;;;;4.24;86.37;98364.25;4992274;28;20385;-72
2021/01/22 11:33:44;;;;;;;0.82;0.50;;;;;;;4.08;87.84;98366.91;4989909;28;20110;-72
2021/01/22 11:36:10;;;;;;;0.85;0.60;;;;;;;4.07;87.19;98375.72;4995981;28;20022;-72
2021/01/22 11:38:35;;;;;;;1.02;0.50;;;;;;;4.01;88.59;98396.31;4992325;28;20050;-72